Weather at Aerodromo de Tavira ULM [CLOSED]

Public forecast

Using degrees Celsius for public forecast. Weather courtesy of forecast.io.

Closest aviation weather report (METAR) to Aerodromo de Tavira ULM

Closest report is Faro Airport, 15.7 nm (29.1 km) WSW.

2024/06/16 11:30 (retrieved 20 minutes ago)

LPFR 161130Z 17008KT CAVOK 23/14 Q1015

Closest aviation forecast (TAF) to Aerodromo de Tavira ULM

Closest forecast is Faro Airport, 15.7 nm (29.1 km) WSW.

2024/06/16 06:18 (retrieved 6 hours ago)

TAF LPFR 160500Z 1606/1706 31010KT CAVOK BECMG 1609/1612 25015KT BECMG 1616/1618 32010KT BECMG 1703/1706 VRB02KT